Time;durP1;ratioP1;P1;durP2;ratioP2;P2;SDS_P1;SDS_P2;PMS_P1;PMS_P2;Temp;Humidity;BMP_temperature;BMP_pressure;BME280_temperature;BME280_humidity;BME280_pressure;Samples;Min_cycle;Max_cycle;Signal;HPM_P1;HPM_P2
2021/08/06 00:00:16;;;;;;;3.80;3.50;;;15.70;99.90;;;;;;5031189;28;20787;-80
2021/08/06 00:02:42;;;;;;;3.60;3.40;;;15.80;99.90;;;;;;5030586;28;20295;-81
2021/08/06 00:05:08;;;;;;;4.07;3.37;;;15.80;99.90;;;;;;5031466;28;20506;-81
2021/08/06 00:07:34;;;;;;;3.60;3.13;;;15.70;99.90;;;;;;5030700;28;20415;-80
2021/08/06 00:10:00;;;;;;;6.17;3.97;;;15.70;99.90;;;;;;5030834;28;20418;-80
2021/08/06 00:12:26;;;;;;;6.83;4.10;;;15.70;99.90;;;;;;5030938;28;20180;-80
2021/08/06 00:14:52;;;;;;;4.57;3.43;;;15.80;99.90;;;;;;5030632;28;20522;-80
2021/08/06 00:17:18;;;;;;;3.60;3.30;;;15.70;99.90;;;;;;5030997;28;20172;-80
2021/08/06 00:19:44;;;;;;;3.57;3.30;;;15.60;99.90;;;;;;5032121;28;20176;-80
2021/08/06 00:22:09;;;;;;;4.13;3.60;;;15.70;99.90;;;;;;5030620;28;20577;-80
2021/08/06 00:24:35;;;;;;;4.60;4.20;;;15.60;99.90;;;;;;5030726;28;20199;-81
2021/08/06 00:27:01;;;;;;;5.10;4.53;;;15.60;99.90;;;;;;5030473;28;20172;-81
2021/08/06 00:29:27;;;;;;;3.67;3.37;;;15.50;99.90;;;;;;5030787;28;20179;-81
2021/08/06 00:31:52;;;;;;;3.70;3.40;;;15.50;99.90;;;;;;5030719;28;20517;-80
2021/08/06 00:34:18;;;;;;;5.20;3.80;;;15.50;99.90;;;;;;5030511;28;20196;-80
2021/08/06 00:36:44;;;;;;;3.80;3.50;;;15.50;99.90;;;;;;5030294;28;20172;-80
2021/08/06 00:39:09;;;;;;;4.93;3.70;;;15.50;99.90;;;;;;5030393;28;20195;-80
2021/08/06 00:41:36;;;;;;;3.53;3.20;;;15.50;99.90;;;;;;5030488;28;20704;-80
2021/08/06 00:44:02;;;;;;;3.20;2.90;;;15.50;99.90;;;;;;5030383;28;20195;-81
2021/08/06 00:46:27;;;;;;;4.80;3.03;;;15.50;99.90;;;;;;5030130;28;20411;-81
2021/08/06 00:48:53;;;;;;;5.20;4.70;;;15.50;99.90;;;;;;5030491;28;20242;-80
2021/08/06 00:51:19;;;;;;;8.33;4.10;;;15.40;99.90;;;;;;5030377;28;20408;-81
2021/08/06 00:53:45;;;;;;;5.83;4.73;;;15.50;99.90;;;;;;5030435;28;20177;-81
2021/08/06 00:56:12;;;;;;;4.17;3.77;;;15.50;99.90;;;;;;5030272;28;20506;-80
2021/08/06 00:58:38;;;;;;;3.40;3.20;;;15.40;99.90;;;;;;5030489;28;20199;-80
2021/08/06 01:01:04;;;;;;;3.67;3.40;;;15.40;99.90;;;;;;5030445;28;20747;-80
2021/08/06 01:03:37;;;;;;;3.80;3.60;;;15.40;99.90;;;;;;5030336;28;20450;-80
2021/08/06 01:06:23;;;;;;;4.33;3.97;;;15.30;99.90;;;;;;5030259;28;20543;-81
2021/08/06 01:08:53;;;;;;;4.40;4.10;;;15.30;99.90;;;;;;5030286;28;20434;-81
2021/08/06 01:11:23;;;;;;;4.80;4.50;;;15.30;99.90;;;;;;5030616;28;20407;-80
2021/08/06 01:13:54;;;;;;;3.97;3.67;;;15.40;99.90;;;;;;5030274;28;20420;-80
2021/08/06 01:16:25;;;;;;;3.37;3.10;;;15.40;99.90;;;;;;5030610;28;20450;-80
2021/08/06 01:19:15;;;;;;;3.90;3.33;;;15.40;99.90;;;;;;5030546;28;20418;-80
2021/08/06 01:21:43;;;;;;;3.97;3.63;;;15.40;99.90;;;;;;5032233;28;20789;-80
2021/08/06 01:24:14;;;;;;;3.67;3.37;;;15.40;99.90;;;;;;5034100;28;20433;-80
2021/08/06 01:26:42;;;;;;;3.53;3.23;;;15.30;99.90;;;;;;5034131;28;20407;-80
2021/08/06 01:29:08;;;;;;;3.10;2.90;;;15.40;99.90;;;;;;5034180;28;20438;-80
2021/08/06 01:31:34;;;;;;;2.77;2.60;;;15.40;99.90;;;;;;5033828;28;20437;-80
2021/08/06 01:34:00;;;;;;;3.63;3.10;;;15.30;99.90;;;;;;5034164;28;20522;-81
2021/08/06 01:36:25;;;;;;;2.97;2.80;;;15.40;99.90;;;;;;5033583;28;20662;-80
2021/08/06 01:38:52;;;;;;;3.27;3.07;;;15.40;99.90;;;;;;5033894;28;20190;-80
2021/08/06 01:41:37;;;;;;;2.87;2.67;;;15.40;99.90;;;;;;5033951;28;20168;-80
2021/08/06 01:44:24;;;;;;;3.37;3.07;;;15.50;99.90;;;;;;5033883;28;20938;-81
2021/08/06 01:46:59;;;;;;;3.33;3.07;;;15.50;99.90;;;;;;5033350;28;20411;-80
2021/08/06 01:49:46;;;;;;;4.17;3.90;;;15.50;99.90;;;;;;5033578;28;20772;-80
2021/08/06 01:52:20;;;;;;;3.40;3.20;;;15.60;99.90;;;;;;5033659;28;20461;-81
2021/08/06 01:54:50;;;;;;;3.87;3.57;;;15.50;99.90;;;;;;5033541;28;20461;-80
2021/08/06 01:57:16;;;;;;;3.30;3.10;;;15.50;99.90;;;;;;5033009;28;20636;-80
2021/08/06 01:59:43;;;;;;;4.87;4.57;;;15.50;99.90;;;;;;5033507;28;20408;-80
2021/08/06 02:02:10;;;;;;;3.40;3.00;;;15.50;99.90;;;;;;5033168;28;20455;-80
2021/08/06 02:04:36;;;;;;;3.00;2.80;;;15.50;99.90;;;;;;5032981;28;20427;-80
2021/08/06 02:07:02;;;;;;;4.80;3.10;;;15.40;99.90;;;;;;5032700;28;20407;-81
2021/08/06 02:09:28;;;;;;;4.03;3.73;;;15.40;99.90;;;;;;5033132;28;20414;-81
2021/08/06 02:11:54;;;;;;;3.87;3.57;;;15.40;99.90;;;;;;5033048;28;20460;-80
2021/08/06 02:14:21;;;;;;;3.73;3.43;;;15.40;99.90;;;;;;5032990;28;20446;-80
2021/08/06 02:16:52;;;;;;;3.10;2.90;;;15.50;99.90;;;;;;5032858;28;21024;-80
2021/08/06 02:19:21;;;;;;;7.43;3.70;;;15.50;99.90;;;;;;5032904;28;20481;-80
2021/08/06 02:21:51;;;;;;;3.87;3.63;;;15.40;99.90;;;;;;5033023;28;20419;-80
2021/08/06 02:24:17;;;;;;;3.70;3.33;;;15.50;99.90;;;;;;5032728;28;20443;-80
2021/08/06 02:26:45;;;;;;;3.50;3.20;;;15.50;99.90;;;;;;5032619;28;20422;-80
2021/08/06 02:29:14;;;;;;;3.10;2.90;;;15.40;99.90;;;;;;5033285;28;20226;-80
2021/08/06 02:31:43;;;;;;;4.90;3.70;;;15.40;99.90;;;;;;5033545;28;20477;-80
2021/08/06 02:34:11;;;;;;;5.23;4.83;;;15.50;99.90;;;;;;5032534;28;20467;-81
2021/08/06 02:36:36;;;;;;;3.40;3.20;;;15.40;99.90;;;;;;5034570;28;20458;-81
2021/08/06 02:39:10;;;;;;;4.10;3.50;;;15.40;99.90;;;;;;5032858;28;20423;-81
2021/08/06 02:41:35;;;;;;;3.47;3.17;;;15.40;99.90;;;;;;5032860;28;20180;-80
2021/08/06 02:44:01;;;;;;;3.03;2.83;;;15.40;99.90;;;;;;5032572;28;20427;-81
2021/08/06 02:46:27;;;;;;;3.17;2.97;;;15.40;99.90;;;;;;5032604;28;20215;-81
2021/08/06 02:48:52;;;;;;;3.37;3.07;;;15.40;99.90;;;;;;5032398;28;20614;-81
2021/08/06 02:51:18;;;;;;;3.47;3.27;;;15.40;99.90;;;;;;5032327;28;20714;-81
2021/08/06 02:53:44;;;;;;;3.03;2.73;;;15.40;99.90;;;;;;5032623;28;20200;-81
2021/08/06 02:56:09;;;;;;;3.30;3.10;;;15.40;99.90;;;;;;5032176;28;20176;-80
2021/08/06 02:58:35;;;;;;;2.50;2.40;;;15.50;99.90;;;;;;5032526;28;20283;-81
2021/08/06 03:01:01;;;;;;;2.93;2.73;;;15.50;99.90;;;;;;5032382;28;20274;-81
2021/08/06 03:03:26;;;;;;;2.70;2.60;;;15.40;99.90;;;;;;5032395;28;20200;-81
2021/08/06 03:05:52;;;;;;;2.50;2.40;;;15.40;99.90;;;;;;5032427;28;20655;-81
2021/08/06 03:08:17;;;;;;;2.20;2.10;;;15.30;99.90;;;;;;5031977;28;20551;-81
2021/08/06 03:10:43;;;;;;;2.83;2.63;;;15.40;99.90;;;;;;5032349;28;20549;-80
2021/08/06 03:13:09;;;;;;;3.23;3.00;;;15.50;99.90;;;;;;5031950;28;20184;-81
2021/08/06 03:15:34;;;;;;;2.33;2.23;;;15.50;99.90;;;;;;5031956;28;20204;-81
2021/08/06 03:18:00;;;;;;;2.10;2.00;;;15.50;99.90;;;;;;5031453;28;20202;-81
2021/08/06 03:20:26;;;;;;;2.50;2.40;;;15.40;99.90;;;;;;5031818;28;20189;-81
2021/08/06 03:22:52;;;;;;;2.00;1.90;;;15.40;99.90;;;;;;5031616;28;20659;-81
2021/08/06 03:25:18;;;;;;;2.30;2.10;;;15.50;99.90;;;;;;5031777;28;20284;-81
2021/08/06 03:27:44;;;;;;;1.90;1.80;;;15.40;99.90;;;;;;5031397;28;20510;-81
2021/08/06 03:30:13;;;;;;;2.10;1.90;;;15.40;99.90;;;;;;5031599;28;20932;-81
2021/08/06 03:32:40;;;;;;;1.60;1.60;;;15.30;99.90;;;;;;5031733;28;20423;-81
2021/08/06 03:35:07;;;;;;;1.90;1.80;;;15.30;99.90;;;;;;5031514;28;20796;-81
2021/08/06 03:37:33;;;;;;;2.27;2.17;;;15.40;99.90;;;;;;5031410;28;20419;-81
2021/08/06 03:40:00;;;;;;;1.97;1.87;;;15.40;99.90;;;;;;5031644;28;20412;-80
2021/08/06 03:42:26;;;;;;;2.40;2.30;;;15.50;99.90;;;;;;5031299;28;20462;-81
2021/08/06 03:44:51;;;;;;;2.53;2.43;;;15.40;99.90;;;;;;5030691;28;20476;-81
2021/08/06 03:47:17;;;;;;;1.73;1.63;;;15.50;99.90;;;;;;5031104;28;20169;-81
2021/08/06 03:49:43;;;;;;;2.23;2.03;;;15.40;99.90;;;;;;5031257;28;20207;-81
2021/08/06 03:52:08;;;;;;;1.67;1.57;;;15.40;99.90;;;;;;5031302;28;20176;-81
2021/08/06 03:54:34;;;;;;;2.03;1.60;;;15.50;99.90;;;;;;5031211;28;20239;-81
2021/08/06 03:57:00;;;;;;;2.20;2.10;;;15.50;99.90;;;;;;5030971;28;20195;-80
2021/08/06 03:59:26;;;;;;;1.53;1.53;;;15.50;99.90;;;;;;5031213;28;20415;-81
2021/08/06 04:01:52;;;;;;;2.10;2.00;;;15.40;99.90;;;;;;5031000;28;20176;-80
2021/08/06 04:04:17;;;;;;;1.90;1.80;;;15.50;99.90;;;;;;5031039;28;20268;-81
2021/08/06 04:06:43;;;;;;;1.33;1.33;;;15.50;99.90;;;;;;5030715;28;20503;-81
2021/08/06 04:09:09;;;;;;;1.63;1.63;;;15.50;99.90;;;;;;5031582;28;20168;-81
2021/08/06 04:11:35;;;;;;;3.30;1.77;;;15.40;99.90;;;;;;5030955;28;20173;-81
2021/08/06 04:14:00;;;;;;;1.90;1.80;;;15.40;99.90;;;;;;5031165;28;20191;-81
2021/08/06 04:16:26;;;;;;;1.67;1.53;;;15.50;99.90;;;;;;5030635;28;20183;-81
2021/08/06 04:18:52;;;;;;;1.90;1.80;;;15.50;99.90;;;;;;5030954;28;20666;-81
2021/08/06 04:21:18;;;;;;;1.87;1.77;;;15.50;99.90;;;;;;5031057;28;20267;-81
2021/08/06 04:23:44;;;;;;;1.40;1.40;;;15.50;99.90;;;;;;5030810;28;20199;-81
2021/08/06 04:26:10;;;;;;;2.10;2.00;;;15.50;99.90;;;;;;5030805;28;20418;-80
2021/08/06 04:28:36;;;;;;;1.77;1.67;;;15.50;99.90;;;;;;5030751;28;20173;-81
2021/08/06 04:31:04;;;;;;;1.90;1.80;;;15.50;99.90;;;;;;5030844;28;20264;-81
2021/08/06 04:33:30;;;;;;;1.60;1.60;;;15.40;99.90;;;;;;5030762;28;20168;-80
2021/08/06 04:35:55;;;;;;;1.67;1.57;;;15.50;99.90;;;;;;5030831;28;20457;-80
2021/08/06 04:38:21;;;;;;;2.10;2.00;;;15.50;99.90;;;;;;5030521;28;20188;-80
2021/08/06 04:40:47;;;;;;;1.73;1.63;;;15.50;99.90;;;;;;5031134;28;20600;-80
2021/08/06 04:43:12;;;;;;;1.77;1.73;;;15.40;99.90;;;;;;5030719;28;20577;-80
2021/08/06 04:45:39;;;;;;;1.80;1.77;;;15.40;99.90;;;;;;5030503;28;20587;-80
2021/08/06 04:48:05;;;;;;;1.60;1.50;;;15.50;99.90;;;;;;5030583;28;20215;-80
2021/08/06 04:50:31;;;;;;;1.57;1.57;;;15.40;99.90;;;;;;5030638;28;20415;-80
2021/08/06 04:52:57;;;;;;;2.13;1.50;;;15.40;99.90;;;;;;5030720;28;20550;-80
2021/08/06 04:55:24;;;;;;;1.53;1.43;;;15.40;99.90;;;;;;5030544;28;20435;-81
2021/08/06 04:57:51;;;;;;;1.67;1.57;;;15.40;99.90;;;;;;5034381;28;20183;-80
2021/08/06 05:00:17;;;;;;;1.70;1.60;;;15.50;99.90;;;;;;5034845;28;20414;-81
2021/08/06 05:02:43;;;;;;;1.40;1.30;;;15.50;99.90;;;;;;5034245;28;20474;-81
2021/08/06 05:05:09;;;;;;;1.80;1.70;;;15.40;99.90;;;;;;5035862;28;20451;-80
2021/08/06 05:07:35;;;;;;;1.17;1.17;;;15.40;99.90;;;;;;5033849;28;20173;-80
2021/08/06 05:10:00;;;;;;;1.47;1.37;;;15.40;99.90;;;;;;5034163;28;20421;-80
2021/08/06 05:12:26;;;;;;;1.63;1.53;;;15.40;99.90;;;;;;5034439;28;20183;-80
2021/08/06 05:14:52;;;;;;;2.13;1.37;;;15.50;99.90;;;;;;5034331;28;20885;-80
2021/08/06 05:17:18;;;;;;;1.50;1.40;;;15.50;99.90;;;;;;5034110;28;20423;-80
2021/08/06 05:19:43;;;;;;;1.73;1.63;;;15.60;99.90;;;;;;5034050;28;20199;-80
2021/08/06 05:22:09;;;;;;;1.90;1.37;;;15.60;99.90;;;;;;5033809;28;20679;-80
2021/08/06 05:24:35;;;;;;;1.20;1.20;;;15.60;99.90;;;;;;5033725;28;20605;-80
2021/08/06 05:27:00;;;;;;;1.60;1.50;;;15.60;99.90;;;;;;5033625;28;20180;-80
2021/08/06 05:29:26;;;;;;;1.70;1.60;;;15.60;99.90;;;;;;5034286;28;20303;-80
2021/08/06 05:31:52;;;;;;;1.70;1.60;;;15.70;99.90;;;;;;5033806;28;20639;-80
2021/08/06 05:34:17;;;;;;;1.40;1.40;;;15.70;99.90;;;;;;5033633;28;20275;-80
2021/08/06 05:36:43;;;;;;;2.17;1.53;;;15.70;99.90;;;;;;5033573;28;20173;-80
2021/08/06 05:39:09;;;;;;;1.50;1.50;;;15.70;99.90;;;;;;5033671;28;20647;-80
2021/08/06 05:41:35;;;;;;;3.13;1.67;;;15.70;99.90;;;;;;5033811;28;21100;-80
2021/08/06 05:44:00;;;;;;;1.80;1.73;;;15.70;99.90;;;;;;5033487;28;20239;-80
2021/08/06 05:46:26;;;;;;;1.60;1.27;;;15.70;99.90;;;;;;5033132;28;20172;-80
2021/08/06 05:48:52;;;;;;;2.03;1.93;;;15.80;99.90;;;;;;5033488;28;20164;-80
2021/08/06 05:51:17;;;;;;;1.50;1.40;;;15.80;99.90;;;;;;5033557;28;20169;-80
2021/08/06 05:53:43;;;;;;;1.70;1.60;;;15.90;99.90;;;;;;5033254;28;20283;-80
2021/08/06 05:56:09;;;;;;;3.53;1.80;;;15.90;99.90;;;;;;5033189;28;20203;-80
2021/08/06 05:58:35;;;;;;;1.77;1.67;;;15.90;99.90;;;;;;5033387;28;20259;-80
2021/08/06 06:01:01;;;;;;;2.43;1.80;;;15.90;99.90;;;;;;5033098;28;20451;-80
2021/08/06 06:03:27;;;;;;;1.73;1.63;;;15.90;99.90;;;;;;5033468;28;20204;-80
2021/08/06 06:05:52;;;;;;;1.83;1.73;;;16.00;99.90;;;;;;5032981;28;20428;-80
2021/08/06 06:08:18;;;;;;;1.90;1.80;;;16.00;99.90;;;;;;5031885;28;20264;-80
2021/08/06 06:10:44;;;;;;;2.53;2.00;;;16.00;99.90;;;;;;5032969;28;20581;-81
2021/08/06 06:13:09;;;;;;;1.97;1.83;;;15.90;99.90;;;;;;5033141;28;20172;-81
2021/08/06 06:15:35;;;;;;;3.10;2.10;;;16.00;99.90;;;;;;5032813;28;20250;-80
2021/08/06 06:18:01;;;;;;;2.07;1.97;;;16.00;99.90;;;;;;5032673;28;20188;-81
2021/08/06 06:20:26;;;;;;;2.30;2.20;;;16.00;99.90;;;;;;5032918;28;20591;-81
2021/08/06 06:22:52;;;;;;;1.63;1.53;;;16.00;99.90;;;;;;5032732;28;20693;-81
2021/08/06 06:25:18;;;;;;;2.00;1.90;;;16.10;99.90;;;;;;5032920;28;20290;-81
2021/08/06 06:28:03;;;;;;;1.90;1.80;;;16.10;99.90;;;;;;5032549;28;20160;-81
2021/08/06 06:30:30;;;;;;;2.00;1.90;;;16.10;99.90;;;;;;5032678;28;20667;-80
2021/08/06 06:32:58;;;;;;;1.63;1.53;;;16.20;99.90;;;;;;5032687;28;20473;-81
2021/08/06 06:35:25;;;;;;;2.00;1.90;;;16.30;99.90;;;;;;5033828;28;20804;-80
2021/08/06 06:37:51;;;;;;;2.07;1.90;;;16.40;99.90;;;;;;5032146;28;20427;-81
2021/08/06 06:40:18;;;;;;;1.67;1.50;;;16.40;99.90;;;;;;5032603;28;20514;-81
2021/08/06 06:42:45;;;;;;;2.20;2.10;;;16.50;99.90;;;;;;5032303;28;20458;-80
2021/08/06 06:45:12;;;;;;;1.73;1.63;;;16.40;99.90;;;;;;5032353;28;20438;-80
2021/08/06 06:47:39;;;;;;;4.60;2.47;;;16.40;99.90;;;;;;5032121;28;20787;-81
2021/08/06 06:50:09;;;;;;;1.67;1.57;;;16.40;99.90;;;;;;5032329;28;20407;-81
2021/08/06 06:52:38;;;;;;;3.60;1.93;;;16.40;99.90;;;;;;5032316;28;20416;-80
2021/08/06 06:55:06;;;;;;;1.77;1.67;;;16.50;99.90;;;;;;5032146;28;20457;-81
2021/08/06 06:57:31;;;;;;;1.53;1.50;;;16.50;99.90;;;;;;5031901;28;20438;-81
2021/08/06 06:59:57;;;;;;;2.40;1.53;;;16.50;99.90;;;;;;5032141;28;20921;-80
2021/08/06 07:02:23;;;;;;;2.30;1.77;;;16.50;99.90;;;;;;5032102;28;20204;-81
2021/08/06 07:04:49;;;;;;;4.87;1.77;;;16.50;99.90;;;;;;5032089;28;20196;-81
2021/08/06 07:07:15;;;;;;;2.20;2.10;;;16.50;99.90;;;;;;5031626;28;20840;-81
2021/08/06 07:09:41;;;;;;;1.70;1.60;;;16.50;99.90;;;;;;5031799;28;20212;-80
2021/08/06 07:12:08;;;;;;;2.67;2.50;;;16.50;99.90;;;;;;5032041;28;20184;-80
2021/08/06 07:14:34;;;;;;;1.87;1.77;;;16.50;99.90;;;;;;5032109;28;20522;-81
2021/08/06 07:17:00;;;;;;;4.67;2.20;;;16.60;99.90;;;;;;5031849;28;20415;-80
2021/08/06 07:19:25;;;;;;;4.33;2.40;;;16.70;99.90;;;;;;5031510;28;20438;-81
2021/08/06 07:21:51;;;;;;;3.40;2.73;;;16.70;99.90;;;;;;5031949;28;20180;-80
2021/08/06 07:24:17;;;;;;;2.47;2.30;;;16.80;99.90;;;;;;5031591;28;20192;-81
2021/08/06 07:26:43;;;;;;;2.23;2.10;;;16.90;99.90;;;;;;5031639;28;20472;-81
2021/08/06 07:29:09;;;;;;;2.20;2.10;;;17.00;99.90;;;;;;5031647;28;20501;-80
2021/08/06 07:31:35;;;;;;;3.13;2.30;;;16.90;99.90;;;;;;5031632;28;20173;-81
2021/08/06 07:34:00;;;;;;;1.90;1.80;;;16.90;99.90;;;;;;5031364;28;20603;-81
2021/08/06 07:36:26;;;;;;;2.40;2.20;;;17.00;99.90;;;;;;5031199;28;20180;-81
2021/08/06 07:38:52;;;;;;;3.87;3.07;;;17.20;99.90;;;;;;5031423;28;20242;-81
2021/08/06 07:41:18;;;;;;;2.23;2.13;;;17.30;99.90;;;;;;5031372;28;20169;-80
2021/08/06 07:43:44;;;;;;;4.10;2.77;;;17.30;99.90;;;;;;5032440;28;20199;-80
2021/08/06 07:46:09;;;;;;;2.23;2.13;;;17.30;99.90;;;;;;5031092;28;20171;-80
2021/08/06 07:48:35;;;;;;;4.23;2.00;;;17.30;99.90;;;;;;5031400;28;20235;-80
2021/08/06 07:51:01;;;;;;;3.20;2.40;;;17.30;99.90;;;;;;5031371;28;20173;-80
2021/08/06 07:53:27;;;;;;;1.83;1.73;;;17.30;99.90;;;;;;5031134;28;20216;-81
2021/08/06 07:55:53;;;;;;;2.10;2.00;;;17.30;99.90;;;;;;5030975;28;20462;-81
2021/08/06 07:58:20;;;;;;;1.97;1.87;;;17.40;99.90;;;;;;5031036;28;20190;-80
2021/08/06 08:00:45;;;;;;;3.33;2.73;;;17.30;99.90;;;;;;5031036;28;20231;-81
2021/08/06 08:03:11;;;;;;;2.67;2.47;;;17.20;99.90;;;;;;5031010;28;20463;-80
2021/08/06 08:05:37;;;;;;;2.83;2.30;;;17.10;99.90;;;;;;5030891;28;20268;-80
2021/08/06 08:08:03;;;;;;;2.37;2.27;;;17.10;99.90;;;;;;5030931;28;20175;-80
2021/08/06 08:10:30;;;;;;;2.33;2.23;;;17.00;99.90;;;;;;5030954;28;20184;-81
2021/08/06 08:12:56;;;;;;;2.73;2.53;;;17.00;99.90;;;;;;5030991;28;20419;-81
2021/08/06 08:15:22;;;;;;;6.90;3.27;;;17.20;99.90;;;;;;5030739;28;20427;-81
2021/08/06 08:17:48;;;;;;;2.33;2.20;;;17.30;99.90;;;;;;5030610;28;20419;-81
2021/08/06 08:20:14;;;;;;;4.03;2.63;;;17.40;99.90;;;;;;5030990;28;20701;-81
2021/08/06 08:22:40;;;;;;;2.23;2.03;;;17.60;99.90;;;;;;5030531;28;20458;-80
2021/08/06 08:25:07;;;;;;;2.67;2.47;;;17.70;99.90;;;;;;5030712;28;20564;-81
2021/08/06 08:27:33;;;;;;;4.23;2.07;;;17.80;99.90;;;;;;5030441;28;20951;-81
2021/08/06 08:29:59;;;;;;;3.13;2.33;;;17.90;99.90;;;;;;5031616;28;20400;-81
2021/08/06 08:32:24;;;;;;;5.20;3.03;;;17.80;99.90;;;;;;5036971;28;20419;-81
2021/08/06 08:34:50;;;;;;;3.17;2.83;;;18.00;99.90;;;;;;5037201;28;20773;-81
2021/08/06 08:37:16;;;;;;;2.83;2.63;;;18.10;99.90;;;;;;5036966;28;20178;-81
2021/08/06 08:39:42;;;;;;;3.90;2.80;;;18.20;99.90;;;;;;5037326;28;20223;-81
2021/08/06 08:42:08;;;;;;;2.87;2.67;;;18.20;99.90;;;;;;5037341;28;20214;-81
2021/08/06 08:44:36;;;;;;;2.70;2.40;;;18.30;99.90;;;;;;5037499;28;20818;-81
2021/08/06 08:47:04;;;;;;;3.40;2.50;;;18.40;99.90;;;;;;5037186;28;20180;-81
2021/08/06 08:49:33;;;;;;;3.73;2.37;;;18.60;99.90;;;;;;5037348;28;20403;-82
2021/08/06 08:51:59;;;;;;;3.80;2.60;;;18.60;99.90;;;;;;5037495;28;20502;-80
2021/08/06 08:54:26;;;;;;;3.53;3.33;;;18.50;99.90;;;;;;5037772;28;20462;-80
2021/08/06 08:56:52;;;;;;;2.53;2.43;;;18.40;99.90;;;;;;5037098;28;20430;-81
2021/08/06 08:59:18;;;;;;;2.40;2.20;;;18.40;99.90;;;;;;5037249;28;20415;-81
2021/08/06 09:01:44;;;;;;;2.30;2.20;;;18.20;99.90;;;;;;5037302;28;20411;-81
2021/08/06 09:04:22;;;;;;;2.80;2.60;;;18.10;99.90;;;;;;5037301;28;20831;-81
2021/08/06 09:06:49;;;;;;;8.10;2.70;;;18.10;99.90;;;;;;5036979;28;20473;-81
2021/08/06 09:09:15;;;;;;;2.03;1.93;;;18.10;99.90;;;;;;5037465;28;20422;-81
2021/08/06 09:11:41;;;;;;;3.07;2.80;;;18.10;99.90;;;;;;5037215;28;20493;-81
2021/08/06 09:14:25;;;;;;;2.20;2.07;;;18.40;99.90;;;;;;5036886;28;20932;-81
2021/08/06 09:17:03;;;;;;;2.30;2.20;;;18.60;99.90;;;;;;5036821;28;20176;-81
2021/08/06 09:19:32;;;;;;;2.37;2.20;;;18.60;99.90;;;;;;5036985;28;20795;-81
2021/08/06 09:22:22;;;;;;;2.77;2.40;;;18.60;99.90;;;;;;5036984;28;20492;-83
2021/08/06 09:25:06;;;;;;;3.13;2.83;;;18.60;99.90;;;;;;5036914;28;20439;-82
2021/08/06 09:27:35;;;;;;;6.30;2.40;;;18.70;99.90;;;;;;5036499;28;20410;-82
2021/08/06 09:30:03;;;;;;;3.40;2.27;;;18.70;99.90;;;;;;5036898;28;20411;-82
2021/08/06 09:32:45;;;;;;;2.37;2.00;;;19.00;99.90;;;;;;5036947;28;20417;-82
2021/08/06 09:35:14;;;;;;;2.97;2.77;;;19.60;99.90;;;;;;5036840;28;20475;-81
2021/08/06 09:37:40;;;;;;;2.17;1.97;;;20.10;99.90;;;;;;5036354;28;20457;-81
2021/08/06 09:40:24;;;;;;;3.03;2.20;;;20.10;99.90;;;;;;5036817;28;20447;-82
2021/08/06 09:43:00;;;;;;;2.20;2.10;;;20.10;99.90;;;;;;5034898;28;20227;-82
2021/08/06 09:45:35;;;;;;;7.30;2.53;;;19.90;99.90;;;;;;5033632;28;20521;-83
2021/08/06 09:48:03;;;;;;;2.00;1.90;;;19.80;99.90;;;;;;5033323;28;20415;-82
2021/08/06 09:50:44;;;;;;;1.63;1.60;;;20.00;99.90;;;;;;5033551;28;20415;-82
2021/08/06 09:53:11;;;;;;;2.40;1.97;;;20.00;99.50;;;;;;5033531;28;20421;-83
2021/08/06 09:55:39;;;;;;;3.80;1.80;;;20.10;99.40;;;;;;5033261;28;20522;-83
2021/08/06 09:58:10;;;;;;;5.00;1.93;;;20.10;98.90;;;;;;5033347;28;20422;-83
2021/08/06 10:00:45;;;;;;;2.23;2.03;;;20.30;98.90;;;;;;5033372;28;20438;-82
2021/08/06 10:03:28;;;;;;;2.37;2.17;;;20.50;98.70;;;;;;5033305;28;20466;-82
2021/08/06 10:06:22;;;;;;;1.57;1.47;;;20.70;99.20;;;;;;5033103;28;20465;-83
2021/08/06 10:08:47;;;;;;;1.80;1.70;;;20.80;97.60;;;;;;5033446;28;20420;-82
2021/08/06 10:11:14;;;;;;;3.40;1.73;;;21.20;98.70;;;;;;5033043;28;20434;-82
2021/08/06 10:13:40;;;;;;;2.70;1.70;;;21.20;97.10;;;;;;5032873;28;20188;-82
2021/08/06 10:16:07;;;;;;;2.13;1.97;;;21.10;97.20;;;;;;5032662;28;20411;-84
2021/08/06 10:18:33;;;;;;;2.50;2.10;;;21.30;97.30;;;;;;5033048;28;20914;-82
2021/08/06 10:20:58;;;;;;;3.47;2.10;;;20.90;96.70;;;;;;5033150;28;20417;-83
2021/08/06 10:23:24;;;;;;;2.03;1.93;;;20.60;97.30;;;;;;5032760;28;20492;-82
2021/08/06 10:25:50;;;;;;;2.07;1.70;;;20.30;98.00;;;;;;5032728;28;20203;-83
2021/08/06 10:28:16;;;;;;;2.10;1.90;;;20.40;98.40;;;;;;5032650;28;20215;-83
2021/08/06 10:30:42;;;;;;;1.80;1.70;;;20.30;98.60;;;;;;5032847;28;20802;-83
2021/08/06 10:33:33;;;;;;;2.43;1.87;;;20.20;98.70;;;;;;5032733;28;20415;-81
2021/08/06 10:36:05;;;;;;;2.03;1.93;;;19.70;98.40;;;;;;5032404;28;20173;-83
2021/08/06 10:38:44;;;;;;;1.80;1.70;;;19.30;99.90;;;;;;5032510;28;20511;-81
2021/08/06 10:41:13;;;;;;;2.30;1.40;;;19.10;99.90;;;;;;5032777;28;20484;-81
2021/08/06 10:43:47;;;;;;;2.17;1.97;;;18.90;99.90;;;;;;5032619;28;20474;-82
2021/08/06 10:46:14;;;;;;;1.50;1.40;;;18.70;99.90;;;;;;5032297;28;20933;-82
2021/08/06 10:48:48;;;;;;;1.70;1.60;;;18.80;99.90;;;;;;5032651;28;20544;-82
2021/08/06 10:51:20;;;;;;;1.37;1.30;;;18.90;99.90;;;;;;5032554;28;20411;-81
2021/08/06 10:53:54;;;;;;;1.43;1.40;;;19.30;99.90;;;;;;5031839;28;20415;-82
2021/08/06 10:56:25;;;;;;;1.10;1.10;;;19.40;99.90;;;;;;5032249;28;20453;-81
2021/08/06 10:58:51;;;;;;;2.30;1.93;;;19.70;99.90;;;;;;5032432;28;20418;-81
2021/08/06 11:01:30;;;;;;;1.83;1.73;;;20.10;99.90;;;;;;5032606;28;20418;-80
2021/08/06 11:03:59;;;;;;;1.90;1.80;;;20.20;99.90;;;;;;5032440;28;20473;-81
2021/08/06 11:06:34;;;;;;;1.87;1.67;;;20.30;99.90;;;;;;5032936;28;20933;-81
2021/08/06 11:08:59;;;;;;;1.40;1.30;;;20.80;99.90;;;;;;5031881;28;20426;-81
2021/08/06 11:11:54;;;;;;;1.50;1.40;;;20.80;99.90;;;;;;5031741;28;20423;-81
2021/08/06 11:14:29;;;;;;;1.43;1.37;;;20.60;98.30;;;;;;5031736;28;20227;-80
2021/08/06 11:17:15;;;;;;;1.70;1.60;;;20.70;99.10;;;;;;5031445;28;20414;-81
2021/08/06 11:19:56;;;;;;;1.60;1.50;;;20.40;98.40;;;;;;5031739;28;20502;-80
2021/08/06 11:22:28;;;;;;;4.87;1.53;;;20.30;98.70;;;;;;5031658;28;20462;-80
2021/08/06 11:25:06;;;;;;;2.97;1.57;;;19.90;98.30;;;;;;5031571;28;20431;-80
2021/08/06 11:27:34;;;;;;;2.50;2.40;;;20.20;99.20;;;;;;5031336;28;20425;-80
2021/08/06 11:30:06;;;;;;;1.73;1.73;;;20.90;99.00;;;;;;5031548;28;20451;-80
2021/08/06 11:32:46;;;;;;;2.33;1.57;;;21.50;98.90;;;;;;5031468;28;20498;-80
2021/08/06 11:35:11;;;;;;;1.97;1.87;;;22.20;98.20;;;;;;5031368;28;20439;-81
2021/08/06 11:37:46;;;;;;;2.33;1.53;;;21.90;95.40;;;;;;5030978;28;20430;-80
2021/08/06 11:40:14;;;;;;;1.40;1.30;;;21.70;96.00;;;;;;5031445;28;20237;-80
2021/08/06 11:42:41;;;;;;;1.80;1.70;;;21.40;96.10;;;;;;5031015;28;20455;-80
2021/08/06 11:45:09;;;;;;;2.00;1.80;;;21.40;96.50;;;;;;5031227;28;20427;-80
2021/08/06 11:47:42;;;;;;;2.37;2.23;;;21.40;96.60;;;;;;5030805;28;20447;-79
2021/08/06 11:50:11;;;;;;;2.00;1.73;;;21.00;95.30;;;;;;5031214;28;20507;-80
2021/08/06 11:52:43;;;;;;;1.70;1.60;;;21.30;97.60;;;;;;5031030;28;20411;-80
2021/08/06 11:55:10;;;;;;;1.80;1.70;;;21.70;96.30;;;;;;5031016;28;20910;-80
2021/08/06 11:57:49;;;;;;;2.30;2.10;;;22.00;95.80;;;;;;5030975;28;20502;-81
2021/08/06 12:00:25;;;;;;;2.23;2.13;;;22.20;95.00;;;;;;5031401;28;20906;-81
2021/08/06 12:03:00;;;;;;;3.43;1.80;;;22.00;95.40;;;;;;5030840;28;20489;-81
2021/08/06 12:05:25;;;;;;;1.87;1.77;;;21.60;94.80;;;;;;5030163;28;20949;-83
2021/08/06 12:07:51;;;;;;;2.10;2.00;;;21.70;95.60;;;;;;5030842;28;20416;-82
2021/08/06 12:10:17;;;;;;;2.50;2.30;;;21.40;94.90;;;;;;5031323;28;20183;-82
2021/08/06 12:12:43;;;;;;;2.20;2.00;;;21.30;95.10;;;;;;5031292;28;20628;-82
2021/08/06 12:15:23;;;;;;;4.80;2.27;;;21.20;95.30;;;;;;5031152;28;20446;-83
2021/08/06 12:18:08;;;;;;;1.97;1.87;;;20.90;95.60;;;;;;5031109;28;20176;-82
2021/08/06 12:20:35;;;;;;;1.80;1.70;;;20.90;95.70;;;;;;5030841;28;20498;-82
2021/08/06 12:23:01;;;;;;;1.73;1.60;;;20.70;95.60;;;;;;5030705;28;20464;-81
2021/08/06 12:25:27;;;;;;;1.60;1.50;;;20.80;96.10;;;;;;5030628;28;20435;-82
2021/08/06 12:27:53;;;;;;;3.47;2.03;;;20.50;96.20;;;;;;5030528;28;20179;-81
2021/08/06 12:30:27;;;;;;;1.93;1.77;;;20.30;96.80;;;;;;5030688;28;20415;-82
2021/08/06 12:32:52;;;;;;;1.83;1.73;;;20.30;97.30;;;;;;5030736;28;20183;-80
2021/08/06 12:35:24;;;;;;;1.97;1.87;;;20.30;97.10;;;;;;5030770;28;20439;-82
2021/08/06 12:37:50;;;;;;;2.23;2.00;;;20.20;96.90;;;;;;5030594;28;20670;-82
2021/08/06 12:40:16;;;;;;;2.07;1.93;;;20.10;97.70;;;;;;5030714;28;20910;-82
2021/08/06 12:42:42;;;;;;;3.03;1.93;;;20.00;97.50;;;;;;5030473;28;20477;-82
2021/08/06 12:45:09;;;;;;;1.60;1.50;;;20.20;97.90;;;;;;5030572;28;20203;-80
2021/08/06 12:47:52;;;;;;;2.53;2.33;;;20.60;97.10;;;;;;5030339;28;20403;-81
2021/08/06 12:50:32;;;;;;;3.10;1.60;;;20.70;97.60;;;;;;5030531;28;20416;-80
2021/08/06 12:53:16;;;;;;;1.70;1.60;;;20.80;96.60;;;;;;5030564;28;20419;-81